createdAt,value
2023-01-18T00:00:21.175Z,9.52
2023-01-18T00:03:23.503Z,10.98
2023-01-18T00:06:27.925Z,9.68
2023-01-18T00:09:30.135Z,10.52
2023-01-18T00:12:33.863Z,9.90
2023-01-18T00:15:36.748Z,10.10
2023-01-18T00:18:38.940Z,9.55
2023-01-18T00:21:41.273Z,10.93
2023-01-18T00:24:43.381Z,11.02
2023-01-18T00:27:51.823Z,11.00
2023-01-18T00:30:54.102Z,10.23
2023-01-18T00:33:56.296Z,10.32
2023-01-18T00:36:58.575Z,10.32
2023-01-18T00:40:01.051Z,9.95
2023-01-18T00:43:21.662Z,10.73
2023-01-18T00:46:27.512Z,9.73
2023-01-18T00:49:29.738Z,10.65
2023-01-18T00:52:33.819Z,10.45
2023-01-18T00:55:35.943Z,10.23
2023-01-18T00:58:38.178Z,11.40
2023-01-18T01:01:40.423Z,10.55
2023-01-18T01:05:01.481Z,10.50
2023-01-18T01:08:04.795Z,9.45
2023-01-18T01:11:12.032Z,10.23
2023-01-18T01:14:32.942Z,10.43
2023-01-18T01:17:56.143Z,10.40
2023-01-18T01:21:16.687Z,10.40
2023-01-18T01:24:37.351Z,10.00
2023-01-18T01:27:39.493Z,10.43
2023-01-18T01:30:41.763Z,11.30
2023-01-18T01:33:45.184Z,10.82
2023-01-18T01:36:47.351Z,10.38
2023-01-18T01:39:49.497Z,10.57
2023-01-18T01:42:51.689Z,10.32
2023-01-18T01:45:53.927Z,10.85
2023-01-18T01:49:07.367Z,11.23
2023-01-18T01:52:11.397Z,11.35
2023-01-18T01:55:23.452Z,10.27
2023-01-18T01:58:29.639Z,12.18
2023-01-18T02:01:32.424Z,11.48
2023-01-18T02:04:35.374Z,11.40
2023-01-18T02:07:37.675Z,11.57
2023-01-18T02:10:40.357Z,11.43
2023-01-18T02:13:42.618Z,12.60
2023-01-18T02:16:44.788Z,12.30
2023-01-18T02:19:46.991Z,12.85
2023-01-18T02:23:24.625Z,12.55
2023-01-18T02:26:44.384Z,12.57
2023-01-18T02:30:11.740Z,12.15
2023-01-18T02:33:29.179Z,12.68
2023-01-18T02:36:42.288Z,13.85
2023-01-18T02:40:06.359Z,12.95
2023-01-18T02:43:29.239Z,11.38
2023-01-18T02:46:36.395Z,11.45
2023-01-18T02:49:38.651Z,12.55
2023-01-18T02:52:42.170Z,13.27
2023-01-18T02:55:49.637Z,12.80
2023-01-18T02:58:59.269Z,13.73
2023-01-18T03:02:20.866Z,11.93
2023-01-18T03:05:24.680Z,12.77
2023-01-18T03:08:46.275Z,12.27
2023-01-18T03:12:03.208Z,12.35
2023-01-18T03:15:14.040Z,12.18
2023-01-18T03:18:22.228Z,12.68
2023-01-18T03:21:24.913Z,13.98
2023-01-18T03:24:30.487Z,12.45
2023-01-18T03:27:51.462Z,13.25
2023-01-18T03:31:16.469Z,12.25
2023-01-18T03:34:30.229Z,12.57
2023-01-18T03:37:40.125Z,13.13
2023-01-18T03:40:42.414Z,13.48
2023-01-18T03:43:47.136Z,13.43
2023-01-18T03:46:49.626Z,11.60
2023-01-18T03:49:52.060Z,13.02
2023-01-18T03:52:59.534Z,11.98
2023-01-18T03:56:06.984Z,12.75
2023-01-18T03:59:09.330Z,12.60
2023-01-18T04:02:11.773Z,12.13
2023-01-18T04:05:14.855Z,12.20
2023-01-18T04:08:17.039Z,12.85
2023-01-18T04:11:19.623Z,12.70
2023-01-18T04:14:21.684Z,11.75
2023-01-18T04:17:23.811Z,12.40
2023-01-18T04:20:26.015Z,12.45
2023-01-18T04:23:28.613Z,13.13
2023-01-18T04:26:30.890Z,13.52
2023-01-18T04:29:33.054Z,12.70
2023-01-18T04:32:35.153Z,14.00
2023-01-18T04:35:37.324Z,13.57
2023-01-18T04:38:39.432Z,14.02
2023-01-18T04:41:41.720Z,14.73
2023-01-18T04:44:43.934Z,13.02
2023-01-18T04:47:46.536Z,13.75
2023-01-18T04:50:48.869Z,13.20
2023-01-18T04:53:51.806Z,14.30
2023-01-18T04:56:54.079Z,14.07
2023-01-18T04:59:56.260Z,14.93
2023-01-18T05:02:58.796Z,13.80
2023-01-18T05:06:01.231Z,14.00
2023-01-18T05:09:03.720Z,13.57
2023-01-18T05:12:06.111Z,13.90
2023-01-18T05:15:08.932Z,14.45
2023-01-18T05:18:11.129Z,13.48
2023-01-18T05:21:13.797Z,14.40
2023-01-18T05:24:16.061Z,13.45
2023-01-18T05:27:18.276Z,14.05
2023-01-18T05:30:20.582Z,14.85
2023-01-18T05:33:23.521Z,15.50
2023-01-18T05:36:25.706Z,15.02
2023-01-18T05:39:27.922Z,14.73
2023-01-18T05:42:30.058Z,13.80
2023-01-18T05:45:32.222Z,14.27
2023-01-18T05:48:34.624Z,15.20
2023-01-18T05:51:36.805Z,14.32
2023-01-18T05:54:39.032Z,15.55
2023-01-18T05:57:41.255Z,17.15
2023-01-18T06:00:43.376Z,16.75
2023-01-18T06:03:45.485Z,17.08
2023-01-18T06:06:47.689Z,18.00
2023-01-18T06:09:49.920Z,17.00
2023-01-18T06:12:52.213Z,18.33
2023-01-18T06:15:55.307Z,18.52
2023-01-18T06:18:57.398Z,19.65
2023-01-18T06:21:59.466Z,17.50
2023-01-18T06:25:01.625Z,18.73
2023-01-18T06:28:05.294Z,16.92
2023-01-18T06:31:08.535Z,18.38
2023-01-18T06:34:10.756Z,19.23
2023-01-18T06:37:13.462Z,18.50
2023-01-18T06:40:15.920Z,19.08
2023-01-18T06:43:18.084Z,17.42
2023-01-18T06:46:20.490Z,18.58
2023-01-18T06:49:22.669Z,19.42
2023-01-18T06:52:24.878Z,18.30
2023-01-18T06:55:26.997Z,19.02
2023-01-18T06:58:32.894Z,19.08
2023-01-18T07:01:35.236Z,18.58
2023-01-18T07:04:44.193Z,18.42
2023-01-18T07:07:46.512Z,20.38
2023-01-18T07:10:49.069Z,19.58
2023-01-18T07:13:51.989Z,18.88
2023-01-18T07:16:54.259Z,20.20
2023-01-18T07:19:56.512Z,19.45
2023-01-18T07:22:59.076Z,18.95
2023-01-18T07:26:06.814Z,17.98
2023-01-18T07:29:09.246Z,18.70
2023-01-18T07:32:11.355Z,19.30
2023-01-18T07:35:13.571Z,21.48
2023-01-18T07:38:15.743Z,20.17
2023-01-18T07:41:18.099Z,20.20
2023-01-18T07:44:20.544Z,19.83
2023-01-18T07:47:22.614Z,20.77
2023-01-18T07:50:24.766Z,21.13
2023-01-18T07:53:28.235Z,18.20
2023-01-18T07:56:30.761Z,19.83
2023-01-18T07:59:33.656Z,20.23
2023-01-18T08:02:35.834Z,19.95
2023-01-18T08:05:38.223Z,20.00
2023-01-18T08:08:40.711Z,19.90
2023-01-18T08:11:42.985Z,19.90
2023-01-18T08:14:46.050Z,20.88
2023-01-18T08:17:51.290Z,19.92
2023-01-18T08:20:55.167Z,20.77
2023-01-18T08:23:57.482Z,19.05
2023-01-18T08:26:59.642Z,19.67
2023-01-18T08:30:01.810Z,19.10
2023-01-18T08:33:04.406Z,20.20
2023-01-18T08:36:10.566Z,18.65
2023-01-18T08:39:13.738Z,19.23
2023-01-18T08:42:16.086Z,17.73
2023-01-18T08:45:18.367Z,18.88
2023-01-18T08:48:20.588Z,20.20
2023-01-18T08:51:25.996Z,20.70
2023-01-18T08:54:28.311Z,20.02
2023-01-18T08:57:30.889Z,19.67
2023-01-18T09:00:33.273Z,19.58
2023-01-18T09:03:35.952Z,19.35
2023-01-18T09:06:38.160Z,19.92
2023-01-18T09:09:40.373Z,18.52
2023-01-18T09:12:42.637Z,19.92
2023-01-18T09:15:47.028Z,19.50
2023-01-18T09:18:50.484Z,19.42
2023-01-18T09:21:52.651Z,19.73
2023-01-18T09:24:54.845Z,20.73
2023-01-18T09:27:57.032Z,20.00
2023-01-18T09:31:11.024Z,19.92
2023-01-18T09:34:19.176Z,19.15
2023-01-18T09:37:22.030Z,19.77
2023-01-18T09:40:46.316Z,19.08
2023-01-18T09:43:51.534Z,19.75
2023-01-18T09:46:58.294Z,17.50
2023-01-18T09:50:06.443Z,18.98
2023-01-18T09:53:18.887Z,19.20
2023-01-18T09:56:40.688Z,19.23
2023-01-18T10:00:00.947Z,18.15
2023-01-18T10:06:17.766Z,19.25
2023-01-18T10:09:26.527Z,20.25
2023-01-18T10:12:31.865Z,16.85
2023-01-18T10:15:37.032Z,20.13
2023-01-18T10:18:45.832Z,19.58
2023-01-18T10:22:23.437Z,19.48
2023-01-18T10:26:12.856Z,18.85
2023-01-18T10:29:21.341Z,18.58
2023-01-18T10:32:26.040Z,19.48
2023-01-18T10:35:36.665Z,19.38
2023-01-18T10:38:40.998Z,20.08
2023-01-18T10:41:44.080Z,21.42
2023-01-18T10:44:46.256Z,18.77
2023-01-18T10:47:50.080Z,21.75
2023-01-18T10:50:55.875Z,19.38
2023-01-18T10:53:58.477Z,20.92
2023-01-18T10:57:05.261Z,20.75
2023-01-18T11:00:21.510Z,20.38
2023-01-18T11:03:26.429Z,20.95
2023-01-18T11:06:29.871Z,21.67
2023-01-18T11:09:46.603Z,20.02
2023-01-18T11:12:52.295Z,20.42
2023-01-18T11:16:13.830Z,23.08
2023-01-18T11:19:20.037Z,21.83
2023-01-18T11:22:24.016Z,23.45
2023-01-18T11:25:34.887Z,23.17
2023-01-18T11:28:45.899Z,22.70
2023-01-18T11:31:50.238Z,23.42
2023-01-18T11:34:55.280Z,22.55
2023-01-18T11:38:03.124Z,22.63
2023-01-18T11:41:28.182Z,23.50
2023-01-18T11:44:35.145Z,22.80
2023-01-18T11:47:58.610Z,21.58
2023-01-18T11:51:08.566Z,23.27
2023-01-18T11:54:22.932Z,23.75
2023-01-18T11:57:25.246Z,25.27
2023-01-18T12:00:32.118Z,23.98
2023-01-18T12:03:40.332Z,23.50
2023-01-18T12:07:29.983Z,24.25
2023-01-18T12:10:57.536Z,21.90
2023-01-18T12:14:00.004Z,23.13
2023-01-18T12:17:24.221Z,24.42
2023-01-18T12:20:55.743Z,22.30
2023-01-18T12:24:16.177Z,23.42
2023-01-18T12:27:43.918Z,23.52
2023-01-18T12:31:04.891Z,23.65
2023-01-18T12:34:38.552Z,24.42
2023-01-18T12:38:13.502Z,23.65
2023-01-18T12:41:21.928Z,22.33
2023-01-18T12:44:54.658Z,24.50
2023-01-18T12:48:18.808Z,22.23
2023-01-18T12:51:24.087Z,21.42
2023-01-18T12:54:31.651Z,22.38
2023-01-18T12:57:35.159Z,23.30
2023-01-18T13:00:40.425Z,22.55
2023-01-18T13:03:46.307Z,21.13
2023-01-18T13:06:51.851Z,23.25
2023-01-18T13:09:54.761Z,21.17
2023-01-18T13:12:58.291Z,22.73
2023-01-18T13:16:17.356Z,19.23
2023-01-18T13:19:24.889Z,20.73
2023-01-18T13:22:50.822Z,24.05
2023-01-18T13:26:21.393Z,21.08
2023-01-18T13:29:29.726Z,21.75
2023-01-18T13:32:35.721Z,23.80
2023-01-18T13:35:38.444Z,23.60
2023-01-18T13:38:53.380Z,24.95
2023-01-18T13:42:04.487Z,22.45
2023-01-18T13:45:30.566Z,22.75
2023-01-18T13:48:57.508Z,22.10
2023-01-18T13:51:59.869Z,22.42
2023-01-18T13:55:04.007Z,21.55
2023-01-18T13:58:24.502Z,24.23
2023-01-18T14:01:32.707Z,24.33
2023-01-18T14:04:36.387Z,24.50
2023-01-18T14:07:43.779Z,23.35
2023-01-18T14:10:53.285Z,23.60
2023-01-18T14:13:55.445Z,21.37
2023-01-18T14:17:18.219Z,22.08
2023-01-18T14:20:43.038Z,22.58
2023-01-18T14:24:09.689Z,22.48
2023-01-18T14:27:20.209Z,21.65
2023-01-18T14:30:25.923Z,21.00
2023-01-18T14:33:37.557Z,23.13
2023-01-18T14:36:39.776Z,23.27
2023-01-18T14:39:42.126Z,21.25
2023-01-18T14:43:07.658Z,22.25
2023-01-18T14:46:23.292Z,20.58
2023-01-18T14:49:30.391Z,20.83
2023-01-18T14:52:34.608Z,21.23
2023-01-18T14:55:36.829Z,21.80
2023-01-18T14:58:50.588Z,22.10
2023-01-18T15:01:56.507Z,22.55
2023-01-18T15:05:17.184Z,21.83
2023-01-18T15:08:20.375Z,22.33
2023-01-18T15:11:24.238Z,19.95
2023-01-18T15:14:32.612Z,21.13
2023-01-18T15:17:37.028Z,20.55
2023-01-18T15:20:59.327Z,21.23
2023-01-18T15:24:06.779Z,19.80
2023-01-18T15:27:17.971Z,21.02
2023-01-18T15:30:23.617Z,20.70
2023-01-18T15:33:27.605Z,20.13
2023-01-18T15:36:29.891Z,21.70
2023-01-18T15:39:33.504Z,18.23
2023-01-18T15:43:01.477Z,18.15
2023-01-18T15:46:17.026Z,18.63
2023-01-18T15:49:19.303Z,20.08
2023-01-18T15:52:43.817Z,20.52
2023-01-18T15:55:58.727Z,20.05
2023-01-18T15:59:06.836Z,18.85
2023-01-18T16:02:09.119Z,19.63
2023-01-18T16:05:21.828Z,19.80
2023-01-18T16:08:24.488Z,20.48
2023-01-18T16:11:40.651Z,19.15
2023-01-18T16:14:46.353Z,18.73
2023-01-18T16:17:48.683Z,19.98
2023-01-18T16:20:50.910Z,19.70
2023-01-18T16:23:54.108Z,19.75
2023-01-18T16:26:58.528Z,20.02
2023-01-18T16:30:05.562Z,19.48
2023-01-18T16:33:09.973Z,19.25
2023-01-18T16:36:17.793Z,19.17
2023-01-18T16:39:21.092Z,19.13
2023-01-18T16:42:29.612Z,20.70
2023-01-18T16:45:39.338Z,18.23
2023-01-18T16:48:41.533Z,18.65
2023-01-18T16:51:43.799Z,18.70
2023-01-18T16:54:46.367Z,18.52
2023-01-18T16:57:51.431Z,18.38
2023-01-18T17:01:07.321Z,18.73
2023-01-18T17:04:11.686Z,18.88
2023-01-18T17:07:14.257Z,17.25
2023-01-18T17:10:31.286Z,19.58
2023-01-18T17:13:33.431Z,18.27
2023-01-18T17:16:35.657Z,17.58
2023-01-18T17:19:38.154Z,17.67
2023-01-18T17:22:40.358Z,18.40
2023-01-18T17:25:43.654Z,18.08
2023-01-18T17:28:45.866Z,17.50
2023-01-18T17:31:53.352Z,18.25
2023-01-18T17:34:57.097Z,17.70
2023-01-18T17:38:05.338Z,18.70
2023-01-18T17:41:26.852Z,18.42
2023-01-18T17:44:36.781Z,19.55
2023-01-18T17:47:39.615Z,19.90
2023-01-18T17:50:42.498Z,18.95
2023-01-18T17:53:44.777Z,18.35
2023-01-18T17:56:47.522Z,17.75
2023-01-18T17:59:53.063Z,17.73
2023-01-18T18:02:57.597Z,19.40
2023-01-18T18:06:01.240Z,18.20
2023-01-18T18:09:03.983Z,18.33
2023-01-18T18:12:07.312Z,19.60
2023-01-18T18:15:09.884Z,19.08
2023-01-18T18:18:22.810Z,19.02
2023-01-18T18:21:27.363Z,18.55
2023-01-18T18:24:29.590Z,18.38
2023-01-18T18:27:44.702Z,19.50
2023-01-18T18:30:50.097Z,19.58
2023-01-18T18:33:53.811Z,19.63
2023-01-18T18:36:56.870Z,18.80
2023-01-18T18:40:00.268Z,19.30
2023-01-18T18:43:03.912Z,19.20
2023-01-18T18:46:06.649Z,18.95
2023-01-18T18:49:08.880Z,19.90
2023-01-18T18:52:11.147Z,18.92
2023-01-18T18:55:13.607Z,19.83
2023-01-18T18:58:15.898Z,20.27
2023-01-18T19:01:21.391Z,21.17
2023-01-18T19:04:23.824Z,19.17
2023-01-18T19:07:26.147Z,19.98
2023-01-18T19:10:30.527Z,20.13
2023-01-18T19:13:32.805Z,19.67
2023-01-18T19:16:36.897Z,21.08
2023-01-18T19:19:39.149Z,20.98
2023-01-18T19:22:41.617Z,20.65
2023-01-18T19:25:44.078Z,19.77
2023-01-18T19:28:47.331Z,21.35
2023-01-18T19:31:49.570Z,21.42
2023-01-18T19:34:51.716Z,21.65
2023-01-18T19:37:54.180Z,21.95
2023-01-18T19:41:01.837Z,22.45
2023-01-18T19:44:04.289Z,19.50
2023-01-18T19:47:06.466Z,20.70
2023-01-18T19:50:09.076Z,20.27
2023-01-18T19:53:11.207Z,18.58
2023-01-18T19:56:13.393Z,21.67
2023-01-18T19:59:15.752Z,22.15
2023-01-18T20:02:18.268Z,19.58
2023-01-18T20:05:20.750Z,21.85
2023-01-18T20:08:23.055Z,20.77
2023-01-18T20:11:25.503Z,21.88
2023-01-18T20:14:40.424Z,20.95
2023-01-18T20:17:43.732Z,19.80
2023-01-18T20:20:45.890Z,20.95
2023-01-18T20:23:48.576Z,20.60
2023-01-18T20:26:50.702Z,21.60
2023-01-18T20:29:52.853Z,20.30
2023-01-18T20:32:55.223Z,19.73
2023-01-18T20:35:57.486Z,19.30
2023-01-18T20:38:59.667Z,21.02
2023-01-18T20:42:01.866Z,22.17
2023-01-18T20:45:04.919Z,20.15
2023-01-18T20:48:07.396Z,21.17
2023-01-18T20:51:09.741Z,20.77
2023-01-18T20:54:11.847Z,20.45
2023-01-18T20:57:14.024Z,20.95
2023-01-18T21:00:17.717Z,21.25
2023-01-18T21:03:21.264Z,21.08
2023-01-18T21:06:23.734Z,20.58
2023-01-18T21:09:26.395Z,18.70
2023-01-18T21:12:28.623Z,20.70
2023-01-18T21:15:30.774Z,20.77
2023-01-18T21:18:33.005Z,19.83
2023-01-18T21:21:36.067Z,20.63
2023-01-18T21:24:38.435Z,21.60
2023-01-18T21:27:43.329Z,22.15
2023-01-18T21:30:45.631Z,22.30
2023-01-18T21:33:47.714Z,20.20
2023-01-18T21:36:51.630Z,20.60
2023-01-18T21:39:53.947Z,20.75
2023-01-18T21:43:14.594Z,21.45
2023-01-18T21:46:16.951Z,20.45
2023-01-18T21:53:19.161Z,22.23
2023-01-18T21:56:21.893Z,19.73
2023-01-18T21:59:24.082Z,19.27
2023-01-18T22:02:26.498Z,20.88
2023-01-18T22:05:28.701Z,21.08
2023-01-18T22:08:31.016Z,20.70
2023-01-18T22:11:33.264Z,23.40
2023-01-18T22:14:35.442Z,23.15
2023-01-18T22:17:37.876Z,21.80
2023-01-18T22:20:40.078Z,18.85
2023-01-18T22:23:42.425Z,21.48
2023-01-18T22:26:45.587Z,22.35
2023-01-18T22:29:48.350Z,20.08
2023-01-18T22:32:50.505Z,20.52
2023-01-18T22:35:58.506Z,19.83
2023-01-18T22:39:00.827Z,22.17
2023-01-18T22:42:03.032Z,21.75
2023-01-18T22:45:05.616Z,20.17
2023-01-18T22:48:08.191Z,21.10
2023-01-18T22:51:13.375Z,21.25
2023-01-18T22:54:16.051Z,20.88
2023-01-18T22:57:18.390Z,20.77
2023-01-18T23:00:20.732Z,21.55
2023-01-18T23:03:23.521Z,20.90
2023-01-18T23:06:26.552Z,20.65
2023-01-18T23:09:29.455Z,21.13
2023-01-18T23:12:31.584Z,23.30
2023-01-18T23:15:52.237Z,21.10
2023-01-18T23:18:54.407Z,21.75
2023-01-18T23:21:56.879Z,21.33
2023-01-18T23:24:59.107Z,21.23
2023-01-18T23:28:03.411Z,20.52
2023-01-18T23:31:05.712Z,21.17
2023-01-18T23:34:08.269Z,21.13
2023-01-18T23:37:10.496Z,23.05
2023-01-18T23:40:31.321Z,21.52
2023-01-18T23:43:52.126Z,21.35
2023-01-18T23:47:12.903Z,20.55
2023-01-18T23:50:33.740Z,20.98
2023-01-18T23:53:54.591Z,21.23
2023-01-18T23:56:56.706Z,19.02
2023-01-18T23:59:59.152Z,21.83
